createdAt,value
2023-02-02T00:01:17.677Z,98690.97688119805
2023-02-02T00:04:19.176Z,98694.01936023709
2023-02-02T00:07:17.135Z,98696.99046005683
2023-02-02T00:11:17.854Z,98700.8118897165
2023-02-02T00:14:17.516Z,98697.34322911916
2023-02-02T00:17:16.992Z,98696.10111220206
2023-02-02T00:21:16.633Z,98698.94520835375
2023-02-02T00:24:19.437Z,98696.28595378001
2023-02-02T00:27:17.277Z,98696.43552772356
2023-02-02T00:31:17.126Z,98696.41714622149
2023-02-02T00:34:18.713Z,98689.61679756311
2023-02-02T00:37:17.510Z,98690.6306434853
2023-02-02T00:41:17.112Z,98697.53433110393
2023-02-02T00:45:22.731Z,98698.55738939578
2023-02-02T00:47:18.390Z,98690.09714989587
2023-02-02T00:51:16.342Z,98688.50761827183
2023-02-02T00:54:16.921Z,98688.51978342432
2023-02-02T00:57:16.913Z,98683.21746233107
2023-02-02T01:01:16.969Z,98685.81450695469
2023-02-02T01:04:16.742Z,98686.21077894993
2023-02-02T01:07:16.617Z,98685.52440860729
2023-02-02T01:11:17.083Z,98680.75225281235
2023-02-02T01:14:16.777Z,98677.93447929858
2023-02-02T01:17:16.701Z,98668.08365522303
2023-02-02T01:21:17.401Z,98654.89654521729
2023-02-02T01:24:17.427Z,98654.36316940786
2023-02-02T01:27:17.825Z,98654.9476562205
2023-02-02T01:31:18.643Z,98660.6169956855
2023-02-02T01:34:16.845Z,98657.89559481354
2023-02-02T01:37:16.838Z,98655.01409788568
2023-02-02T01:41:19.847Z,98654.66816824418
2023-02-02T01:45:27.287Z,98651.19456484428
2023-02-02T01:47:18.563Z,98653.16187390042
2023-02-02T01:51:20.519Z,98648.76566263617
2023-02-02T01:54:22.077Z,98648.32855846616
2023-02-02T01:57:24.202Z,98646.48782337325
2023-02-02T02:01:17.090Z,98641.8948125314
2023-02-02T02:04:17.910Z,98641.46564867483
2023-02-02T02:07:17.421Z,98642.13098627668
2023-02-02T02:11:16.838Z,98629.6180679859
2023-02-02T02:32:04.277Z,98618.74585995568
2023-02-02T02:34:22.641Z,98616.18833369078
2023-02-02T02:37:26.370Z,98613.41900491364
2023-02-02T02:41:20.687Z,98614.13385685609
2023-02-02T02:44:19.350Z,98618.4741596333
2023-02-02T02:47:18.713Z,98621.27105396277
2023-02-02T02:51:43.587Z,98621.57946022032
2023-02-02T02:54:23.629Z,98624.73962990288
2023-02-02T02:57:33.510Z,98626.76516561855
2023-02-02T03:01:24.188Z,98633.85831971969
2023-02-02T03:04:26.985Z,98643.19757476558
2023-02-02T03:07:23.115Z,98642.97878168357
2023-02-02T03:11:17.110Z,98642.11007082807
2023-02-02T03:14:17.113Z,98642.56051301214
2023-02-02T03:17:17.000Z,98645.50965743161
2023-02-02T03:21:16.830Z,98645.2497729906
2023-02-02T03:24:17.122Z,98644.40987588861
2023-02-02T03:27:16.954Z,98642.07840101147
2023-02-02T03:31:17.043Z,98648.45561164344
2023-02-02T03:34:16.773Z,98634.36550123242
2023-02-02T03:37:16.774Z,98636.49559705638
2023-02-02T03:41:16.167Z,98632.17976517494
2023-02-02T03:44:16.536Z,98636.77335865387
2023-02-02T03:47:16.679Z,98633.97069060527
2023-02-02T03:51:16.191Z,98636.14456775581
2023-02-02T03:54:16.496Z,98640.6565398746
2023-02-02T03:57:17.005Z,98643.66332836368
2023-02-02T04:01:16.402Z,98646.32786578796
2023-02-02T04:04:16.644Z,98649.78137353442
2023-02-02T04:07:16.733Z,98647.02752274924
2023-02-02T04:11:16.831Z,98643.60689891948
2023-02-02T04:14:16.808Z,98648.46368604206
2023-02-02T04:17:16.875Z,98651.02591808472
2023-02-02T04:21:16.888Z,98653.80657302549
2023-02-02T04:24:17.385Z,98655.69332972763
2023-02-02T04:27:17.116Z,98655.61514351111
2023-02-02T04:31:16.380Z,98653.88471252422
2023-02-02T04:34:16.819Z,98654.03029667653
2023-02-02T04:37:16.958Z,98659.77945812643
2023-02-02T04:41:17.397Z,98657.10737001209
2023-02-02T04:44:17.289Z,98659.54413653963
2023-02-02T04:47:17.202Z,98656.41984914066
2023-02-02T04:51:16.366Z,98657.59330929321
2023-02-02T04:54:16.576Z,98655.29533487427
2023-02-02T04:57:18.097Z,98655.11586412156
2023-02-02T05:01:18.386Z,98656.44685193675
2023-02-02T05:04:16.732Z,98653.65393364811
2023-02-02T05:07:16.669Z,98656.25186183317
2023-02-02T05:11:18.738Z,98664.09272272677
2023-02-02T05:14:18.968Z,98661.25325085026
2023-02-02T05:17:17.445Z,98664.9780281282
2023-02-02T05:21:16.284Z,98664.53226175932
2023-02-02T05:24:16.719Z,98662.18313797048
2023-02-02T05:27:16.682Z,98659.89399745074
2023-02-02T05:31:17.953Z,98661.7606270321
2023-02-02T05:34:16.936Z,98659.97851535151
2023-02-02T05:37:17.734Z,98669.36994507241
2023-02-02T05:41:16.673Z,98672.15390396686
2023-02-02T05:44:16.796Z,98673.71817136355
2023-02-02T05:47:17.348Z,98673.92673893915
2023-02-02T05:51:21.216Z,98673.11521029839
2023-02-02T05:54:21.435Z,98679.74777271082
2023-02-02T05:57:18.280Z,98672.7389434608
2023-02-02T06:01:18.294Z,98680.0665821437
2023-02-02T06:04:17.456Z,98684.80053937546
2023-02-02T06:07:17.299Z,98685.67590181036
2023-02-02T06:11:17.603Z,98689.48083682012
2023-02-02T06:14:16.644Z,98688.97191016117
2023-02-02T06:17:16.566Z,98682.21756630746
2023-02-02T06:21:17.104Z,98694.84353390432
2023-02-02T06:24:17.396Z,98702.31075340437
2023-02-02T06:27:17.127Z,98701.28540920974
2023-02-02T06:31:20.713Z,98696.2293049205
2023-02-02T06:34:16.752Z,98700.37072246433
2023-02-02T06:37:16.640Z,98713.61333244317
2023-02-02T06:41:16.930Z,98714.09068570708
2023-02-02T06:44:17.271Z,98713.74804539788
2023-02-02T06:47:17.171Z,98722.20224939375
2023-02-02T06:51:16.709Z,98717.84396216474
2023-02-02T06:54:16.967Z,98709.36268867237
2023-02-02T06:57:16.830Z,98717.28383529173
2023-02-02T07:01:17.619Z,98715.98783895846
2023-02-02T07:04:17.265Z,98714.42151768916
2023-02-02T07:07:17.044Z,98719.31066818252
2023-02-02T07:11:17.281Z,98721.47138663758
2023-02-02T07:14:16.968Z,98722.57804110725
2023-02-02T07:17:16.956Z,98725.78345947502
2023-02-02T07:21:18.604Z,98731.26507196909
2023-02-02T07:24:16.672Z,98738.19558937913
2023-02-02T07:27:16.741Z,98733.68074751878
2023-02-02T07:31:20.015Z,98725.17696377635
2023-02-02T07:34:17.309Z,98718.83946129704
2023-02-02T07:37:17.327Z,98728.69922297292
2023-02-02T07:41:17.117Z,98732.23401427573
2023-02-02T07:44:17.304Z,98736.08153694356
2023-02-02T07:47:17.606Z,98740.12451066151
2023-02-02T07:51:17.489Z,98726.24905399705
2023-02-02T07:54:17.316Z,98736.07256418758
2023-02-02T07:57:17.797Z,98738.25598581131
2023-02-02T08:01:16.906Z,98746.2131507053
2023-02-02T08:04:17.619Z,98749.92069446888
2023-02-02T08:07:17.437Z,98754.97007739473
2023-02-02T08:11:18.217Z,98751.79597022262
2023-02-02T08:14:16.343Z,98743.38670773445
2023-02-02T08:17:16.381Z,98742.49330104596
2023-02-02T08:21:17.323Z,98744.98324770921
2023-02-02T08:24:16.692Z,98744.6454923449
2023-02-02T08:27:16.704Z,98743.28681090838
2023-02-02T08:31:18.651Z,98745.61569478072
2023-02-02T08:34:16.749Z,98751.13567444804
2023-02-02T08:37:16.384Z,98749.5665642353
2023-02-02T08:41:19.988Z,98747.3971220125
2023-02-02T08:44:17.090Z,98748.94477621996
2023-02-02T08:47:17.271Z,98749.37447664812
2023-02-02T08:51:18.926Z,98750.81714608379
2023-02-02T08:54:17.243Z,98744.63517549503
2023-02-02T08:57:17.574Z,98743.29384814859
2023-02-02T09:01:19.264Z,98748.7594860014
2023-02-02T09:04:17.350Z,98760.56107669736
2023-02-02T09:07:18.032Z,98756.68512117368
2023-02-02T09:11:18.596Z,98755.86130167563
2023-02-02T09:14:16.784Z,98751.47576324348
2023-02-02T09:17:16.558Z,98751.8110445902
2023-02-02T09:21:17.981Z,98753.97357227566
2023-02-02T09:24:16.822Z,98755.31371810217
2023-02-02T09:27:16.396Z,98756.5961953238
2023-02-02T09:31:16.912Z,98761.05989030599
2023-02-02T09:34:16.974Z,98760.79530419444
2023-02-02T09:37:16.772Z,98757.19898390931
2023-02-02T09:42:37.759Z,98767.10219746028
2023-02-02T09:44:24.738Z,98768.33686935258
2023-02-02T09:47:19.445Z,98767.66499319025
2023-02-02T09:51:19.924Z,98776.41431062094
2023-02-02T09:54:20.380Z,98773.12770983236
2023-02-02T09:57:20.241Z,98774.18557232423
2023-02-02T10:01:21.195Z,98772.74635669569
2023-02-02T10:04:25.230Z,98783.87765292989
2023-02-02T10:07:23.856Z,98785.80636618077
2023-02-02T10:11:27.349Z,98788.94186073802
2023-02-02T10:14:23.494Z,98788.49532936116
2023-02-02T10:17:36.543Z,98785.45410294239
2023-02-02T10:21:28.399Z,98781.31211391516
2023-02-02T10:24:19.094Z,98775.07803474275
2023-02-02T10:27:27.761Z,98770.81905375441
2023-02-02T10:31:26.531Z,98760.72200500427
2023-02-02T10:34:25.127Z,98766.64993095057
2023-02-02T10:37:26.088Z,98764.95963462391
2023-02-02T10:41:26.501Z,98759.0600698778
2023-02-02T10:44:24.695Z,98759.95042178805
2023-02-02T10:47:23.616Z,98753.74871681262
2023-02-02T10:51:22.887Z,98742.83768938435
2023-02-02T10:54:33.373Z,98745.1291677861
2023-02-02T10:57:26.420Z,98743.10688667528
2023-02-02T11:01:18.596Z,98730.13355693009
2023-02-02T11:11:40.857Z,98713.32709784567
2023-02-02T11:14:46.135Z,98709.68400434405
2023-02-02T11:17:37.146Z,98708.8576646103
2023-02-02T11:21:22.347Z,98698.49088715464
2023-02-02T11:24:23.467Z,98697.52064208091
2023-02-02T11:27:20.025Z,98694.58401330977
2023-02-02T11:31:32.291Z,98682.16481922386
2023-02-02T11:34:20.780Z,98672.95319391487
2023-02-02T11:37:21.271Z,98670.95168989385
2023-02-02T11:41:17.493Z,98662.42440182396
2023-02-02T11:44:25.135Z,98658.57164432971
2023-02-02T11:47:21.370Z,98656.03147653783
2023-02-02T11:51:23.200Z,98657.21105256748
2023-02-02T11:54:23.117Z,98657.83924085133
2023-02-02T11:57:19.566Z,98650.43509568872
2023-02-02T12:01:24.303Z,98647.11524023845
2023-02-02T12:04:24.546Z,98646.47378643068
2023-02-02T12:07:22.001Z,98640.10282309413
2023-02-02T12:11:32.624Z,98638.42516343972
2023-02-02T12:14:29.863Z,98624.75678231107
2023-02-02T12:17:29.358Z,98623.60494716419
2023-02-02T12:21:24.544Z,98620.567298841
2023-02-02T12:24:28.395Z,98616.84752316156
2023-02-02T12:27:25.290Z,98614.88322919096
2023-02-02T12:31:24.290Z,98612.44052229726
2023-02-02T12:34:27.111Z,98614.64480851295
2023-02-02T12:37:30.955Z,98611.52116580632
2023-02-02T12:41:31.230Z,98618.58866335268
2023-02-02T12:44:25.409Z,98620.13782964354
2023-02-02T12:47:24.318Z,98618.38582949383
2023-02-02T12:51:33.118Z,98617.47052440967
2023-02-02T12:54:46.409Z,98610.77820777796
2023-02-02T12:57:28.724Z,98602.71135653283
2023-02-02T13:01:29.248Z,98595.80411096866
2023-02-02T13:04:31.430Z,98603.44172898111
2023-02-02T13:07:34.571Z,98599.40464149292
2023-02-02T13:11:41.435Z,98598.60522547433
2023-02-02T13:14:22.575Z,98600.80186128023
2023-02-02T13:17:23.268Z,98595.11496494063
2023-02-02T13:21:22.412Z,98599.11604199796
2023-02-02T13:24:26.110Z,98598.1796414932
2023-02-02T13:27:20.461Z,98601.68543468336
2023-02-02T13:31:22.765Z,98605.99904302275
2023-02-02T13:34:22.111Z,98606.66968830807
2023-02-02T13:37:25.005Z,98609.22416885683
2023-02-02T13:41:19.593Z,98609.74564698058
2023-02-02T13:44:25.193Z,98610.70863893638
2023-02-02T13:47:23.312Z,98608.06803676223
2023-02-02T13:51:40.183Z,98606.25461289403
2023-02-02T14:01:18.988Z,98591.42422534867
2023-02-02T14:04:23.186Z,98600.90069678283
2023-02-02T14:07:27.313Z,98595.35957926023
2023-02-02T14:11:25.627Z,98611.31841686594
2023-02-02T14:14:38.084Z,98612.71870682221
2023-02-02T14:17:52.508Z,98608.59439440427
2023-02-02T14:22:00.433Z,98612.4015623396
2023-02-02T14:24:42.015Z,98612.17186865797
2023-02-02T14:28:10.259Z,98612.27387266792
2023-02-02T14:31:28.365Z,98614.53544944417
2023-02-02T14:34:34.712Z,98610.70784858167
2023-02-02T14:37:41.952Z,98605.4173347595
2023-02-02T14:43:50.711Z,98604.023447001
2023-02-02T14:44:17.691Z,98603.95421596436
2023-02-02T14:48:00.640Z,98607.68565207653
2023-02-02T14:51:19.669Z,98605.18760046932
2023-02-02T14:54:22.997Z,98608.34317355424
2023-02-02T14:57:26.214Z,98609.06992051635
2023-02-02T15:01:24.856Z,98608.81959755089
2023-02-02T15:04:25.629Z,98616.32872293734
2023-02-02T15:08:25.158Z,98620.884697582
2023-02-02T15:12:15.763Z,98624.76743144955
2023-02-02T15:14:21.351Z,98628.47467070719
2023-02-02T15:17:24.055Z,98633.14340448036
2023-02-02T15:21:21.419Z,98637.09463229158
2023-02-02T15:24:23.196Z,98638.6418646249
2023-02-02T15:27:22.024Z,98636.55671193793
2023-02-02T15:31:27.198Z,98639.99553679208
2023-02-02T15:34:22.761Z,98643.85168891835
2023-02-02T15:37:21.930Z,98646.682711255
2023-02-02T15:41:21.940Z,98648.14230999914
2023-02-02T15:44:19.614Z,98648.51741178226
2023-02-02T15:47:19.665Z,98645.6889058582
2023-02-02T15:51:17.419Z,98648.49412998799
2023-02-02T15:54:23.978Z,98651.7397953974
2023-02-02T15:57:29.084Z,98651.9910712527
2023-02-02T16:01:19.068Z,98659.95463952237
2023-02-02T16:04:21.632Z,98663.46192484451
2023-02-02T16:07:20.915Z,98671.90321475087
2023-02-02T16:11:19.445Z,98671.51930033731
2023-02-02T16:14:18.938Z,98672.23793510163
2023-02-02T16:17:21.973Z,98673.37649317147
2023-02-02T16:21:23.825Z,98684.18973340643
2023-02-02T16:24:23.248Z,98685.24247372312
2023-02-02T16:27:20.735Z,98695.57218004133
2023-02-02T16:31:17.513Z,98699.99313356687
2023-02-02T16:34:41.667Z,98708.18623270106
2023-02-02T16:37:21.861Z,98712.14209793776
2023-02-02T16:41:26.929Z,98724.82839932438
2023-02-02T16:44:49.863Z,98727.18093062598
2023-02-02T16:47:51.493Z,98733.45465909941
2023-02-02T16:51:26.708Z,98739.46235093023
2023-02-02T16:54:19.848Z,98742.90998975847
2023-02-02T16:57:20.881Z,98751.47562840027
2023-02-02T17:01:16.937Z,98762.3440174866
2023-02-02T17:04:20.693Z,98768.10863271554
2023-02-02T17:07:17.288Z,98767.11984597972
2023-02-02T17:11:22.372Z,98771.5860592868
2023-02-02T17:14:19.865Z,98772.6748429869
2023-02-02T17:17:16.614Z,98776.96655413824
2023-02-02T17:21:20.361Z,98794.33885336149
2023-02-02T17:24:16.959Z,98802.99894235897
2023-02-02T17:27:25.506Z,98803.36355027182
2023-02-02T17:31:16.781Z,98809.23327284426
2023-02-02T17:34:16.984Z,98803.18510275776
2023-02-02T17:37:16.780Z,98806.75582160566
2023-02-02T17:41:17.124Z,98805.51319703915
2023-02-02T17:44:17.594Z,98804.67226115566
2023-02-02T17:47:17.364Z,98788.86265329056
2023-02-02T17:51:17.246Z,98785.74020566618
2023-02-02T17:54:17.395Z,98785.92355402873
2023-02-02T17:57:17.171Z,98782.15082695626
2023-02-02T18:01:17.720Z,98797.70322600368
2023-02-02T18:04:17.234Z,98790.45660065148
2023-02-02T18:07:19.008Z,98788.66429178148
2023-02-02T18:11:19.494Z,98802.4128408057
2023-02-02T18:14:16.743Z,98801.91647555729
2023-02-02T18:17:16.713Z,98808.6210863404
2023-02-02T18:21:17.244Z,98812.9095756393
2023-02-02T18:24:19.380Z,98818.02224979151
2023-02-02T18:27:19.547Z,98823.66086115713
2023-02-02T18:31:19.557Z,98829.89997512812
2023-02-02T18:34:17.066Z,98836.15564863042
2023-02-02T18:37:17.014Z,98848.03184795305
2023-02-02T18:41:18.161Z,98850.74452801877
2023-02-02T18:44:19.861Z,98845.96877424893
2023-02-02T18:47:18.400Z,98850.73886517626
2023-02-02T18:51:18.295Z,98845.66707863587
2023-02-02T18:54:17.897Z,98846.1008451587
2023-02-02T18:57:17.932Z,98847.5417877414
2023-02-02T19:01:18.121Z,98842.88416474954
2023-02-02T19:04:17.255Z,98839.3750624602
2023-02-02T19:08:22.602Z,98831.25194062285
2023-02-02T19:11:19.162Z,98847.8753002146
2023-02-02T19:14:20.063Z,98864.04067031774
2023-02-02T19:17:21.308Z,98863.53556578417
2023-02-02T19:21:16.895Z,98869.26330091781
2023-02-02T19:24:17.040Z,98861.06445684268
2023-02-02T19:27:20.070Z,98864.56035263109
2023-02-02T19:31:17.677Z,98866.81692128854
2023-02-02T19:34:20.868Z,98871.12337368388
2023-02-02T19:37:23.194Z,98874.20111786362
2023-02-02T19:41:18.979Z,98870.3779410447
2023-02-02T19:44:19.458Z,98878.94476590837
2023-02-02T19:47:27.145Z,98881.6097694477
2023-02-02T19:51:35.464Z,98887.549956121
2023-02-02T19:54:28.701Z,98889.7906250851
2023-02-02T19:57:20.321Z,98893.19845221876
2023-02-02T20:01:20.434Z,98895.91352188056
2023-02-02T20:04:18.934Z,98902.69525846584
2023-02-02T20:07:17.341Z,98904.73336360035
2023-02-02T20:11:28.396Z,98895.79695800782
2023-02-02T20:14:27.733Z,98905.09958938677
2023-02-02T20:17:25.441Z,98913.85574294817
2023-02-02T20:21:26.771Z,98914.62467420069
2023-02-02T20:24:21.520Z,98916.11172035895
2023-02-02T20:27:20.944Z,98920.20188783473
2023-02-02T20:31:18.770Z,98926.61635191609
2023-02-02T20:34:22.250Z,98932.89622999949
2023-02-02T20:37:22.653Z,98935.96689280562
2023-02-02T20:41:36.741Z,98945.51608220967
2023-02-02T20:44:18.249Z,98952.35796039947
2023-02-02T20:47:30.299Z,98955.94634775809
2023-02-02T20:51:32.631Z,98957.90244020366
2023-02-02T20:54:20.513Z,98960.08072121887
2023-02-02T20:57:20.541Z,98952.32541373308
2023-02-02T21:01:17.326Z,98946.36914845118
2023-02-02T21:04:19.546Z,98951.89766023801
2023-02-02T21:07:20.930Z,98962.60527553891
2023-02-02T21:11:15.556Z,98960.91660598769
2023-02-02T21:14:16.010Z,98959.19424704039
2023-02-02T21:17:16.257Z,98956.26882684797
2023-02-02T21:21:17.889Z,98954.78604976657
2023-02-02T21:24:17.468Z,98953.30889830789
2023-02-02T21:27:16.693Z,98962.56770026681
2023-02-02T21:31:17.016Z,98959.28258270005
2023-02-02T21:34:17.416Z,98951.62414117854
2023-02-02T21:37:17.201Z,98949.27103213145
2023-02-02T21:41:15.929Z,98959.42642502199
2023-02-02T21:44:19.177Z,98957.48226705004
2023-02-02T21:47:25.757Z,98961.43917988265
2023-02-02T21:51:21.797Z,98965.59158341019
2023-02-02T21:54:21.982Z,98971.98733634362
2023-02-02T21:57:19.063Z,98977.6987451254
2023-02-02T22:01:21.281Z,98989.33062536025
2023-02-02T22:04:22.691Z,98991.59003536246
2023-02-02T22:07:16.331Z,98993.22829817655
2023-02-02T22:11:22.645Z,98996.09845719888
2023-02-02T22:14:21.235Z,98993.29514079407
2023-02-02T22:17:21.510Z,98995.67085639811
2023-02-02T22:21:16.529Z,98991.96277666815
2023-02-02T22:24:16.112Z,98986.15532512638
2023-02-02T22:27:19.749Z,98983.92357757868
2023-02-02T22:31:16.312Z,98984.29569607679
2023-02-02T22:34:16.618Z,98989.80490635023
2023-02-02T22:37:16.675Z,98990.0595707965
2023-02-02T22:41:16.413Z,98997.96877376857
2023-02-02T22:44:16.648Z,98999.66606383787
2023-02-02T22:47:16.651Z,99011.9491038234
2023-02-02T22:51:15.893Z,99007.98065039687
2023-02-02T22:54:16.192Z,99015.98476029356
2023-02-02T22:57:16.174Z,99017.79776045839
2023-02-02T23:01:16.627Z,99021.58356008634
2023-02-02T23:04:16.062Z,99016.27933542462
2023-02-02T23:07:16.185Z,99018.92968569927
2023-02-02T23:11:16.040Z,99022.90476073675
2023-02-02T23:14:16.272Z,99028.1338176351
2023-02-02T23:17:16.241Z,99018.32681821522
2023-02-02T23:21:17.046Z,99005.31393562273
2023-02-02T23:24:16.141Z,98998.45909064102
2023-02-02T23:27:16.085Z,98989.00012303973
2023-02-02T23:31:15.870Z,98991.86263070456
2023-02-02T23:34:15.967Z,98997.46278803122
2023-02-02T23:37:15.987Z,99003.54561312663
2023-02-02T23:41:16.390Z,99011.63165215157
2023-02-02T23:44:16.743Z,99011.3691608261
2023-02-02T23:47:17.249Z,99011.3231458171
2023-02-02T23:51:16.204Z,99034.43881042743
2023-02-02T23:54:16.491Z,99046.21597887155
2023-02-02T23:57:16.469Z,99037.66034453266
